Kogalym, Russia
Current Conditions -  °F | °C
As of 9:00 AM on Tuesday 23 Dec 2014 (Local Time) from USRR Reporting Station
Overcast Overcast  
Wind Chill: 12°   Ceiling: 400
Heat Index: 25°   Visibility: 4mi
Dew Point: 25°   Wind: 16mph
Humidity: 100%   Direction: 150°SSE
Pressure: 29.77"   Gusts: NA
Location:  62.03°N, 74.5°E
Report Text: USRR 230400Z 15007MPS 6000 OVC004 M04/M04 Q1008 TEMPO OVC004RMK QBB140 OBST OBSC QFE751 07////36
Loading
Personal Weather Stations






























Interactive Weather Map New forecast layout! Learn more

10-Day Weather Forecast

Advertisements
Track Severe Weather on mobile